Amherst, Wisconsin
Current Conditions -  °F | °C
As of 1:55 PM on Sunday 21 Dec 2014 (Local Time) from KSTE Reporting Station
Haze Haze  
Wind Chill: 27°   Ceiling: 900
Heat Index: 33°   Visibility: 4mi
Dew Point: 31°   Wind: 7mph
Humidity: 92%   Direction: 160°SSE
Pressure: 29.94"   Gusts: NA
Location:  44.45°N, 89.28°W
Report Text: KSTE 211955Z AUTO 16006KT 4SM BR OVC009 01/M01 A2994 RMK AO2 T00051007
Loading
Personal Weather Stations






























Interactive Weather Map New forecast layout! Learn more

10-Day Weather Forecast

Advertisements
Track Severe Weather on mobile